Terminal Aerodrome Forecast
Issued by NWS Flagstaff, AZ

Home | Current Version | Previous Version | Text Only | Print | Product List | Glossary On
Versions: 1 2 3 4 5 6 7 8 9 10 11 12 13
000
FTUS45 KFGZ 222338
TAFINW
TAF
KINW 222338Z 2300/2324 19023G32KT P6SM FEW080
     FM230230 23010KT P6SM SKC
     FM231800 21018G30KT P6SM FEW080=

USA.gov is the U.S. government's official web portal to all federal, state and local government web resources and services.